sensor_id;sensor_type;location;lat;lon;timestamp;temperature;humidity
24618;DHT22;12762;51.730;5.356;2023-04-03T00:01:18;4.70;70.90
24618;DHT22;12762;51.730;5.356;2023-04-03T00:03:45;4.70;71.00
24618;DHT22;12762;51.730;5.356;2023-04-03T00:06:12;4.70;71.00
24618;DHT22;12762;51.730;5.356;2023-04-03T00:08:40;4.60;70.90
24618;DHT22;12762;51.730;5.356;2023-04-03T00:11:10;4.60;71.10
24618;DHT22;12762;51.730;5.356;2023-04-03T00:13:39;4.60;71.10
24618;DHT22;12762;51.730;5.356;2023-04-03T00:16:08;4.60;71.20
24618;DHT22;12762;51.730;5.356;2023-04-03T00:18:42;4.60;71.20
24618;DHT22;12762;51.730;5.356;2023-04-03T00:21:10;4.50;71.30
24618;DHT22;12762;51.730;5.356;2023-04-03T00:23:38;4.50;71.20
24618;DHT22;12762;51.730;5.356;2023-04-03T00:26:08;4.50;71.30
24618;DHT22;12762;51.730;5.356;2023-04-03T00:28:35;4.50;71.30
24618;DHT22;12762;51.730;5.356;2023-04-03T00:31:02;4.40;71.30
24618;DHT22;12762;51.730;5.356;2023-04-03T00:33:31;4.40;71.30
24618;DHT22;12762;51.730;5.356;2023-04-03T00:36:06;4.40;71.30
24618;DHT22;12762;51.730;5.356;2023-04-03T00:38:33;4.30;71.30
24618;DHT22;12762;51.730;5.356;2023-04-03T00:41:00;4.30;71.30
24618;DHT22;12762;51.730;5.356;2023-04-03T00:43:27;4.30;71.40
24618;DHT22;12762;51.730;5.356;2023-04-03T00:45:55;4.20;71.40
24618;DHT22;12762;51.730;5.356;2023-04-03T00:48:27;4.20;71.50
24618;DHT22;12762;51.730;5.356;2023-04-03T00:50:59;4.20;71.60
24618;DHT22;12762;51.730;5.356;2023-04-03T00:53:31;4.10;71.50
24618;DHT22;12762;51.730;5.356;2023-04-03T00:55:59;4.10;71.60
24618;DHT22;12762;51.730;5.356;2023-04-03T00:58:36;4.10;71.70
24618;DHT22;12762;51.730;5.356;2023-04-03T01:01:07;4.00;72.40
24618;DHT22;12762;51.730;5.356;2023-04-03T01:03:39;4.00;71.70
24618;DHT22;12762;51.730;5.356;2023-04-03T01:06:06;4.00;71.70
24618;DHT22;12762;51.730;5.356;2023-04-03T01:08:33;4.00;71.80
24618;DHT22;12762;51.730;5.356;2023-04-03T01:11:00;3.90;71.70
24618;DHT22;12762;51.730;5.356;2023-04-03T01:13:29;3.90;71.70
24618;DHT22;12762;51.730;5.356;2023-04-03T01:15:59;3.90;71.80
24618;DHT22;12762;51.730;5.356;2023-04-03T01:18:27;3.90;71.80
24618;DHT22;12762;51.730;5.356;2023-04-03T01:23:58;3.80;71.80
24618;DHT22;12762;51.730;5.356;2023-04-03T01:26:27;3.80;71.80
24618;DHT22;12762;51.730;5.356;2023-04-03T01:28:55;3.80;71.80
24618;DHT22;12762;51.730;5.356;2023-04-03T01:31:32;3.80;71.90
24618;DHT22;12762;51.730;5.356;2023-04-03T01:34:00;3.80;71.90
24618;DHT22;12762;51.730;5.356;2023-04-03T01:36:29;3.80;71.90
24618;DHT22;12762;51.730;5.356;2023-04-03T01:38:57;3.70;71.90
24618;DHT22;12762;51.730;5.356;2023-04-03T01:41:26;3.70;71.90
24618;DHT22;12762;51.730;5.356;2023-04-03T01:43:52;3.70;71.90
24618;DHT22;12762;51.730;5.356;2023-04-03T01:46:20;3.70;71.90
24618;DHT22;12762;51.730;5.356;2023-04-03T01:48:47;3.70;72.00
24618;DHT22;12762;51.730;5.356;2023-04-03T01:51:14;3.60;71.90
24618;DHT22;12762;51.730;5.356;2023-04-03T01:53:43;3.60;71.90
24618;DHT22;12762;51.730;5.356;2023-04-03T01:56:09;3.60;72.00
24618;DHT22;12762;51.730;5.356;2023-04-03T01:58:37;3.60;72.00
24618;DHT22;12762;51.730;5.356;2023-04-03T02:01:04;3.60;72.00
24618;DHT22;12762;51.730;5.356;2023-04-03T02:03:31;3.60;72.90
24618;DHT22;12762;51.730;5.356;2023-04-03T02:05:58;3.50;72.00
24618;DHT22;12762;51.730;5.356;2023-04-03T02:08:24;3.50;72.00
24618;DHT22;12762;51.730;5.356;2023-04-03T02:10:51;3.50;72.10
24618;DHT22;12762;51.730;5.356;2023-04-03T02:13:18;3.50;72.10
24618;DHT22;12762;51.730;5.356;2023-04-03T02:15:46;3.50;72.10
24618;DHT22;12762;51.730;5.356;2023-04-03T02:18:14;3.40;72.00
24618;DHT22;12762;51.730;5.356;2023-04-03T02:20:41;3.40;72.10
24618;DHT22;12762;51.730;5.356;2023-04-03T02:23:09;3.40;72.10
24618;DHT22;12762;51.730;5.356;2023-04-03T02:25:35;3.40;72.10
24618;DHT22;12762;51.730;5.356;2023-04-03T02:28:04;3.40;72.10
24618;DHT22;12762;51.730;5.356;2023-04-03T02:30:31;3.40;72.20
24618;DHT22;12762;51.730;5.356;2023-04-03T02:32:58;3.30;72.10
24618;DHT22;12762;51.730;5.356;2023-04-03T02:35:25;3.30;73.00
24618;DHT22;12762;51.730;5.356;2023-04-03T02:37:52;3.30;72.20
24618;DHT22;12762;51.730;5.356;2023-04-03T02:40:19;3.30;72.30
24618;DHT22;12762;51.730;5.356;2023-04-03T02:42:46;3.30;72.30
24618;DHT22;12762;51.730;5.356;2023-04-03T02:45:13;3.20;72.20
24618;DHT22;12762;51.730;5.356;2023-04-03T02:47:39;3.20;72.20
24618;DHT22;12762;51.730;5.356;2023-04-03T02:50:06;3.20;72.20
24618;DHT22;12762;51.730;5.356;2023-04-03T02:52:33;3.20;72.30
24618;DHT22;12762;51.730;5.356;2023-04-03T02:55:00;3.20;72.30
24618;DHT22;12762;51.730;5.356;2023-04-03T02:57:27;3.20;72.40
24618;DHT22;12762;51.730;5.356;2023-04-03T02:59:53;3.20;72.40
24618;DHT22;12762;51.730;5.356;2023-04-03T03:02:20;3.10;72.40
24618;DHT22;12762;51.730;5.356;2023-04-03T03:04:50;3.10;72.40
24618;DHT22;12762;51.730;5.356;2023-04-03T03:07:17;3.10;72.40
24618;DHT22;12762;51.730;5.356;2023-04-03T03:09:47;3.10;72.40
24618;DHT22;12762;51.730;5.356;2023-04-03T03:12:14;3.00;72.40
24618;DHT22;12762;51.730;5.356;2023-04-03T03:14:41;3.00;72.40
24618;DHT22;12762;51.730;5.356;2023-04-03T03:17:09;3.00;72.50
24618;DHT22;12762;51.730;5.356;2023-04-03T03:19:36;3.00;72.50
24618;DHT22;12762;51.730;5.356;2023-04-03T03:22:05;3.00;72.50
24618;DHT22;12762;51.730;5.356;2023-04-03T03:24:32;2.90;72.50
24618;DHT22;12762;51.730;5.356;2023-04-03T03:26:59;2.90;72.50
24618;DHT22;12762;51.730;5.356;2023-04-03T03:29:26;2.90;72.60
24618;DHT22;12762;51.730;5.356;2023-04-03T03:31:52;2.90;72.60
24618;DHT22;12762;51.730;5.356;2023-04-03T03:34:19;2.80;72.50
24618;DHT22;12762;51.730;5.356;2023-04-03T03:36:46;2.80;72.60
24618;DHT22;12762;51.730;5.356;2023-04-03T03:39:13;2.80;72.60
24618;DHT22;12762;51.730;5.356;2023-04-03T03:41:40;2.80;72.60
24618;DHT22;12762;51.730;5.356;2023-04-03T03:44:07;2.80;72.70
24618;DHT22;12762;51.730;5.356;2023-04-03T03:46:33;2.80;72.70
24618;DHT22;12762;51.730;5.356;2023-04-03T03:49:00;2.70;72.60
24618;DHT22;12762;51.730;5.356;2023-04-03T03:51:27;2.70;72.60
24618;DHT22;12762;51.730;5.356;2023-04-03T03:53:57;2.70;72.70
24618;DHT22;12762;51.730;5.356;2023-04-03T03:56:24;2.70;72.80
24618;DHT22;12762;51.730;5.356;2023-04-03T03:58:51;2.60;72.70
24618;DHT22;12762;51.730;5.356;2023-04-03T04:01:19;2.60;72.70
24618;DHT22;12762;51.730;5.356;2023-04-03T04:03:46;2.60;72.80
24618;DHT22;12762;51.730;5.356;2023-04-03T04:06:15;2.60;73.60
24618;DHT22;12762;51.730;5.356;2023-04-03T04:08:42;2.60;72.90
24618;DHT22;12762;51.730;5.356;2023-04-03T04:11:12;2.60;72.90
24618;DHT22;12762;51.730;5.356;2023-04-03T04:13:38;2.60;72.90
24618;DHT22;12762;51.730;5.356;2023-04-03T04:16:06;2.50;72.80
24618;DHT22;12762;51.730;5.356;2023-04-03T04:18:33;2.50;72.90
24618;DHT22;12762;51.730;5.356;2023-04-03T04:21:03;2.50;72.90
24618;DHT22;12762;51.730;5.356;2023-04-03T04:23:31;2.50;72.90
24618;DHT22;12762;51.730;5.356;2023-04-03T04:25:58;2.40;72.90
24618;DHT22;12762;51.730;5.356;2023-04-03T04:28:24;2.40;72.90
24618;DHT22;12762;51.730;5.356;2023-04-03T04:30:51;2.40;73.00
24618;DHT22;12762;51.730;5.356;2023-04-03T04:33:18;2.40;73.00
24618;DHT22;12762;51.730;5.356;2023-04-03T04:35:47;2.40;73.00
24618;DHT22;12762;51.730;5.356;2023-04-03T04:38:14;2.40;73.10
24618;DHT22;12762;51.730;5.356;2023-04-03T04:40:41;2.40;73.10
24618;DHT22;12762;51.730;5.356;2023-04-03T04:43:08;2.30;73.10
24618;DHT22;12762;51.730;5.356;2023-04-03T04:45:37;2.30;73.10
24618;DHT22;12762;51.730;5.356;2023-04-03T04:48:04;2.30;73.20
24618;DHT22;12762;51.730;5.356;2023-04-03T04:50:31;2.30;73.20
24618;DHT22;12762;51.730;5.356;2023-04-03T04:52:58;2.20;73.20
24618;DHT22;12762;51.730;5.356;2023-04-03T04:55:25;2.20;73.20
24618;DHT22;12762;51.730;5.356;2023-04-03T04:57:52;2.20;73.30
24618;DHT22;12762;51.730;5.356;2023-04-03T05:00:19;2.20;73.30
24618;DHT22;12762;51.730;5.356;2023-04-03T05:02:46;2.20;73.40
24618;DHT22;12762;51.730;5.356;2023-04-03T05:05:13;2.20;73.40
24618;DHT22;12762;51.730;5.356;2023-04-03T05:07:43;2.10;73.30
24618;DHT22;12762;51.730;5.356;2023-04-03T05:10:09;2.20;73.50
24618;DHT22;12762;51.730;5.356;2023-04-03T05:12:39;2.10;73.40
24618;DHT22;12762;51.730;5.356;2023-04-03T05:15:08;2.10;73.40
24618;DHT22;12762;51.730;5.356;2023-04-03T05:17:35;2.10;73.40
24618;DHT22;12762;51.730;5.356;2023-04-03T05:20:03;2.10;73.50
24618;DHT22;12762;51.730;5.356;2023-04-03T05:22:31;2.10;73.50
24618;DHT22;12762;51.730;5.356;2023-04-03T05:24:58;2.10;73.60
24618;DHT22;12762;51.730;5.356;2023-04-03T05:27:25;2.00;73.50
24618;DHT22;12762;51.730;5.356;2023-04-03T05:29:54;2.10;73.60
24618;DHT22;12762;51.730;5.356;2023-04-03T05:32:22;2.00;73.60
24618;DHT22;12762;51.730;5.356;2023-04-03T05:34:49;2.00;73.60
24618;DHT22;12762;51.730;5.356;2023-04-03T05:37:16;2.00;73.60
24618;DHT22;12762;51.730;5.356;2023-04-03T05:39:43;2.00;73.60
24618;DHT22;12762;51.730;5.356;2023-04-03T05:42:10;2.10;73.70
24618;DHT22;12762;51.730;5.356;2023-04-03T05:44:38;2.10;73.70
24618;DHT22;12762;51.730;5.356;2023-04-03T05:47:05;2.10;73.70
24618;DHT22;12762;51.730;5.356;2023-04-03T05:49:32;2.10;73.70
24618;DHT22;12762;51.730;5.356;2023-04-03T05:51:59;2.10;74.50
24618;DHT22;12762;51.730;5.356;2023-04-03T05:54:27;2.10;73.80
24618;DHT22;12762;51.730;5.356;2023-04-03T05:56:54;2.10;73.80
24618;DHT22;12762;51.730;5.356;2023-04-03T05:59:22;2.10;73.80
24618;DHT22;12762;51.730;5.356;2023-04-03T06:01:48;2.20;74.80
24618;DHT22;12762;51.730;5.356;2023-04-03T06:04:15;2.20;73.90
24618;DHT22;12762;51.730;5.356;2023-04-03T06:06:50;2.20;73.90
24618;DHT22;12762;51.730;5.356;2023-04-03T06:09:23;2.20;73.90
24618;DHT22;12762;51.730;5.356;2023-04-03T06:11:53;2.20;73.90
24618;DHT22;12762;51.730;5.356;2023-04-03T06:14:20;2.30;74.00
24618;DHT22;12762;51.730;5.356;2023-04-03T06:16:47;2.30;74.80
24618;DHT22;12762;51.730;5.356;2023-04-03T06:19:14;2.30;74.00
24618;DHT22;12762;51.730;5.356;2023-04-03T06:21:41;2.30;74.00
24618;DHT22;12762;51.730;5.356;2023-04-03T06:24:11;2.40;74.00
24618;DHT22;12762;51.730;5.356;2023-04-03T06:26:39;2.40;74.00
24618;DHT22;12762;51.730;5.356;2023-04-03T06:29:06;2.40;74.00
24618;DHT22;12762;51.730;5.356;2023-04-03T06:31:33;2.40;74.00
24618;DHT22;12762;51.730;5.356;2023-04-03T06:34:03;2.50;74.00
24618;DHT22;12762;51.730;5.356;2023-04-03T06:36:29;2.50;74.10
24618;DHT22;12762;51.730;5.356;2023-04-03T06:38:56;2.60;74.10
24618;DHT22;12762;51.730;5.356;2023-04-03T06:41:23;2.60;74.10
24618;DHT22;12762;51.730;5.356;2023-04-03T06:43:50;2.60;74.10
24618;DHT22;12762;51.730;5.356;2023-04-03T06:46:19;2.70;74.20
24618;DHT22;12762;51.730;5.356;2023-04-03T06:48:46;2.70;74.20
24618;DHT22;12762;51.730;5.356;2023-04-03T06:51:24;2.80;74.30
24618;DHT22;12762;51.730;5.356;2023-04-03T06:53:53;2.80;74.30
24618;DHT22;12762;51.730;5.356;2023-04-03T06:56:21;2.80;74.20
24618;DHT22;12762;51.730;5.356;2023-04-03T06:58:52;2.90;74.30
24618;DHT22;12762;51.730;5.356;2023-04-03T07:01:21;2.90;74.30
24618;DHT22;12762;51.730;5.356;2023-04-03T07:03:57;3.00;74.30
24618;DHT22;12762;51.730;5.356;2023-04-03T07:06:25;3.00;74.30
24618;DHT22;12762;51.730;5.356;2023-04-03T07:08:55;3.10;74.40
24618;DHT22;12762;51.730;5.356;2023-04-03T07:11:22;3.10;74.30
24618;DHT22;12762;51.730;5.356;2023-04-03T07:13:50;3.20;74.40
24618;DHT22;12762;51.730;5.356;2023-04-03T07:16:17;3.30;74.40
24618;DHT22;12762;51.730;5.356;2023-04-03T07:18:44;3.30;74.60
24618;DHT22;12762;51.730;5.356;2023-04-03T07:21:13;3.40;74.40
24618;DHT22;12762;51.730;5.356;2023-04-03T07:23:40;3.50;74.50
24618;DHT22;12762;51.730;5.356;2023-04-03T07:26:07;3.50;74.40
24618;DHT22;12762;51.730;5.356;2023-04-03T07:28:35;3.60;74.50
24618;DHT22;12762;51.730;5.356;2023-04-03T07:31:06;3.70;74.60
24618;DHT22;12762;51.730;5.356;2023-04-03T07:33:35;3.70;74.50
24618;DHT22;12762;51.730;5.356;2023-04-03T07:36:03;3.80;74.50
24618;DHT22;12762;51.730;5.356;2023-04-03T07:38:30;3.90;74.60
24618;DHT22;12762;51.730;5.356;2023-04-03T07:40:57;4.50;76.30
24618;DHT22;12762;51.730;5.356;2023-04-03T07:43:24;5.90;78.30
24618;DHT22;12762;51.730;5.356;2023-04-03T07:45:51;7.60;78.40
24618;DHT22;12762;51.730;5.356;2023-04-03T07:48:20;9.10;77.00
24618;DHT22;12762;51.730;5.356;2023-04-03T07:50:48;10.40;73.70
24618;DHT22;12762;51.730;5.356;2023-04-03T07:53:15;11.50;71.80
24618;DHT22;12762;51.730;5.356;2023-04-03T07:55:42;12.60;70.30
24618;DHT22;12762;51.730;5.356;2023-04-03T07:58:14;13.50;68.50
24618;DHT22;12762;51.730;5.356;2023-04-03T08:00:42;14.20;66.60
24618;DHT22;12762;51.730;5.356;2023-04-03T08:03:10;14.90;65.30
24618;DHT22;12762;51.730;5.356;2023-04-03T08:05:40;15.40;63.70
24618;DHT22;12762;51.730;5.356;2023-04-03T08:08:09;15.90;62.80
24618;DHT22;12762;51.730;5.356;2023-04-03T08:10:39;16.30;61.60
24618;DHT22;12762;51.730;5.356;2023-04-03T08:13:08;16.70;60.80
24618;DHT22;12762;51.730;5.356;2023-04-03T08:15:35;16.90;59.90
24618;DHT22;12762;51.730;5.356;2023-04-03T08:18:02;17.10;59.30
24618;DHT22;12762;51.730;5.356;2023-04-03T08:20:30;17.20;58.80
24618;DHT22;12762;51.730;5.356;2023-04-03T08:22:56;17.10;59.20
24618;DHT22;12762;51.730;5.356;2023-04-03T08:25:23;17.00;58.20
24618;DHT22;12762;51.730;5.356;2023-04-03T08:27:50;16.70;58.00
24618;DHT22;12762;51.730;5.356;2023-04-03T08:30:20;16.40;57.80
24618;DHT22;12762;51.730;5.356;2023-04-03T08:32:47;16.10;58.10
24618;DHT22;12762;51.730;5.356;2023-04-03T08:35:14;15.80;58.00
24618;DHT22;12762;51.730;5.356;2023-04-03T08:37:40;15.70;58.30
24618;DHT22;12762;51.730;5.356;2023-04-03T08:40:13;15.50;58.50
24618;DHT22;12762;51.730;5.356;2023-04-03T08:48:20;15.30;59.00
24618;DHT22;12762;51.730;5.356;2023-04-03T08:50:53;15.30;59.30
24618;DHT22;12762;51.730;5.356;2023-04-03T08:53:25;15.30;59.00
24618;DHT22;12762;51.730;5.356;2023-04-03T08:55:55;15.40;58.90
24618;DHT22;12762;51.730;5.356;2023-04-03T08:58:26;15.50;59.00
24618;DHT22;12762;51.730;5.356;2023-04-03T09:03:32;15.80;58.20
24618;DHT22;12762;51.730;5.356;2023-04-03T09:11:40;16.10;57.00
24618;DHT22;12762;51.730;5.356;2023-04-03T09:22:46;15.80;56.10
24618;DHT22;12762;51.730;5.356;2023-04-03T09:25:31;15.60;56.10
24618;DHT22;12762;51.730;5.356;2023-04-03T09:28:00;15.50;56.10
24618;DHT22;12762;51.730;5.356;2023-04-03T09:30:31;15.40;56.10
24618;DHT22;12762;51.730;5.356;2023-04-03T09:32:57;15.30;55.90
24618;DHT22;12762;51.730;5.356;2023-04-03T09:35:34;15.30;55.70
24618;DHT22;12762;51.730;5.356;2023-04-03T09:40:42;15.20;55.20
24618;DHT22;12762;51.730;5.356;2023-04-03T09:43:29;15.20;55.00
24618;DHT22;12762;51.730;5.356;2023-04-03T09:46:17;15.20;54.60
24618;DHT22;12762;51.730;5.356;2023-04-03T09:49:04;15.20;54.90
24618;DHT22;12762;51.730;5.356;2023-04-03T09:51:35;15.20;54.50
24618;DHT22;12762;51.730;5.356;2023-04-03T09:54:30;15.20;54.50
24618;DHT22;12762;51.730;5.356;2023-04-03T09:57:04;15.30;53.70
24618;DHT22;12762;51.730;5.356;2023-04-03T09:59:33;15.40;53.90
24618;DHT22;12762;51.730;5.356;2023-04-03T10:04:42;15.50;53.10
24618;DHT22;12762;51.730;5.356;2023-04-03T10:07:34;15.50;51.80
24618;DHT22;12762;51.730;5.356;2023-04-03T10:12:41;15.40;52.20
24618;DHT22;12762;51.730;5.356;2023-04-03T10:15:15;15.40;51.40
24618;DHT22;12762;51.730;5.356;2023-04-03T10:17:57;15.50;51.40
24618;DHT22;12762;51.730;5.356;2023-04-03T10:20:37;15.50;51.70
24618;DHT22;12762;51.730;5.356;2023-04-03T10:26:08;15.50;51.50
24618;DHT22;12762;51.730;5.356;2023-04-03T10:28:55;15.60;51.20
24618;DHT22;12762;51.730;5.356;2023-04-03T10:31:31;15.60;51.00
24618;DHT22;12762;51.730;5.356;2023-04-03T10:34:06;15.60;50.70
24618;DHT22;12762;51.730;5.356;2023-04-03T10:43:09;15.70;50.00
24618;DHT22;12762;51.730;5.356;2023-04-03T10:49:31;15.80;50.30
24618;DHT22;12762;51.730;5.356;2023-04-03T10:51:25;15.90;50.00
24618;DHT22;12762;51.730;5.356;2023-04-03T10:56:47;16.00;48.90
24618;DHT22;12762;51.730;5.356;2023-04-03T11:11:22;16.10;48.20
24618;DHT22;12762;51.730;5.356;2023-04-03T11:14:14;16.10;47.80
24618;DHT22;12762;51.730;5.356;2023-04-03T11:16:48;16.20;48.30
24618;DHT22;12762;51.730;5.356;2023-04-03T11:19:25;16.20;47.00
24618;DHT22;12762;51.730;5.356;2023-04-03T11:21:58;16.20;47.10
24618;DHT22;12762;51.730;5.356;2023-04-03T11:24:32;16.20;47.20
24618;DHT22;12762;51.730;5.356;2023-04-03T11:27:01;16.30;47.40
24618;DHT22;12762;51.730;5.356;2023-04-03T11:29:35;16.30;47.00
24618;DHT22;12762;51.730;5.356;2023-04-03T11:35:23;16.50;45.50
24618;DHT22;12762;51.730;5.356;2023-04-03T11:37:52;16.60;46.90
24618;DHT22;12762;51.730;5.356;2023-04-03T11:40:30;16.70;46.50
24618;DHT22;12762;51.730;5.356;2023-04-03T11:45:51;16.70;46.60
24618;DHT22;12762;51.730;5.356;2023-04-03T11:50:59;16.80;46.00
24618;DHT22;12762;51.730;5.356;2023-04-03T11:55:59;16.80;45.50
24618;DHT22;12762;51.730;5.356;2023-04-03T11:58:30;16.80;45.30
24618;DHT22;12762;51.730;5.356;2023-04-03T12:01:09;16.80;45.20
24618;DHT22;12762;51.730;5.356;2023-04-03T12:08:50;16.90;45.00
24618;DHT22;12762;51.730;5.356;2023-04-03T12:11:31;17.00;44.60
24618;DHT22;12762;51.730;5.356;2023-04-03T12:22:20;17.20;45.00
24618;DHT22;12762;51.730;5.356;2023-04-03T12:24:56;17.10;44.60
24618;DHT22;12762;51.730;5.356;2023-04-03T12:27:28;17.20;44.80
24618;DHT22;12762;51.730;5.356;2023-04-03T12:35:18;17.40;44.20
24618;DHT22;12762;51.730;5.356;2023-04-03T12:38:21;17.40;44.80
24618;DHT22;12762;51.730;5.356;2023-04-03T12:44:20;17.50;45.10
24618;DHT22;12762;51.730;5.356;2023-04-03T12:46:51;17.50;44.10
24618;DHT22;12762;51.730;5.356;2023-04-03T12:49:39;17.40;44.40
24618;DHT22;12762;51.730;5.356;2023-04-03T12:54:47;17.40;44.30
24618;DHT22;12762;51.730;5.356;2023-04-03T12:57:20;17.50;44.50
24618;DHT22;12762;51.730;5.356;2023-04-03T12:59:48;17.50;43.90
24618;DHT22;12762;51.730;5.356;2023-04-03T13:04:56;17.50;43.90
24618;DHT22;12762;51.730;5.356;2023-04-03T13:07:28;17.50;43.90
24618;DHT22;12762;51.730;5.356;2023-04-03T13:12:52;17.50;43.10
24618;DHT22;12762;51.730;5.356;2023-04-03T13:17:54;17.30;43.60
24618;DHT22;12762;51.730;5.356;2023-04-03T13:20:26;17.30;43.50
24618;DHT22;12762;51.730;5.356;2023-04-03T13:25:26;17.40;43.70
24618;DHT22;12762;51.730;5.356;2023-04-03T13:27:54;17.40;43.50
24618;DHT22;12762;51.730;5.356;2023-04-03T13:30:55;17.40;43.30
24618;DHT22;12762;51.730;5.356;2023-04-03T13:33:25;17.40;43.30
24618;DHT22;12762;51.730;5.356;2023-04-03T13:41:42;17.20;43.20
24618;DHT22;12762;51.730;5.356;2023-04-03T13:44:36;17.20;43.10
24618;DHT22;12762;51.730;5.356;2023-04-03T13:49:40;17.20;43.20
24618;DHT22;12762;51.730;5.356;2023-04-03T13:52:33;17.20;43.20
24618;DHT22;12762;51.730;5.356;2023-04-03T13:58:00;17.20;43.00
24618;DHT22;12762;51.730;5.356;2023-04-03T14:00:39;17.10;42.80
24618;DHT22;12762;51.730;5.356;2023-04-03T14:06:10;17.20;43.60
24618;DHT22;12762;51.730;5.356;2023-04-03T14:08:38;17.20;43.40
24618;DHT22;12762;51.730;5.356;2023-04-03T14:11:38;17.20;43.20
24618;DHT22;12762;51.730;5.356;2023-04-03T14:14:15;17.10;43.40
24618;DHT22;12762;51.730;5.356;2023-04-03T14:16:46;17.00;42.80
24618;DHT22;12762;51.730;5.356;2023-04-03T14:19:42;17.00;42.20
24618;DHT22;12762;51.730;5.356;2023-04-03T14:22:25;17.00;42.70
24618;DHT22;12762;51.730;5.356;2023-04-03T14:24:52;16.90;42.50
24618;DHT22;12762;51.730;5.356;2023-04-03T14:27:20;16.90;42.60
24618;DHT22;12762;51.730;5.356;2023-04-03T14:29:49;17.00;41.90
24618;DHT22;12762;51.730;5.356;2023-04-03T14:32:18;16.90;41.90
24618;DHT22;12762;51.730;5.356;2023-04-03T14:34:46;16.80;41.80
24618;DHT22;12762;51.730;5.356;2023-04-03T14:37:14;16.80;41.70
24618;DHT22;12762;51.730;5.356;2023-04-03T14:39:42;16.70;41.40
24618;DHT22;12762;51.730;5.356;2023-04-03T14:42:13;16.90;34.90
24618;DHT22;12762;51.730;5.356;2023-04-03T14:44:41;16.80;38.70
24618;DHT22;12762;51.730;5.356;2023-04-03T14:47:12;16.70;39.80
24618;DHT22;12762;51.730;5.356;2023-04-03T14:49:56;16.70;40.20
24618;DHT22;12762;51.730;5.356;2023-04-03T14:52:34;16.60;40.60
24618;DHT22;12762;51.730;5.356;2023-04-03T14:55:04;16.50;40.70
24618;DHT22;12762;51.730;5.356;2023-04-03T14:57:32;16.50;40.90
24618;DHT22;12762;51.730;5.356;2023-04-03T15:00:03;16.50;41.00
24618;DHT22;12762;51.730;5.356;2023-04-03T15:02:38;16.50;41.00
24618;DHT22;12762;51.730;5.356;2023-04-03T15:05:08;16.40;41.00
24618;DHT22;12762;51.730;5.356;2023-04-03T15:07:39;16.40;40.90
24618;DHT22;12762;51.730;5.356;2023-04-03T15:10:28;16.40;40.90
24618;DHT22;12762;51.730;5.356;2023-04-03T15:12:55;16.30;41.00
24618;DHT22;12762;51.730;5.356;2023-04-03T15:15:23;16.20;41.10
24618;DHT22;12762;51.730;5.356;2023-04-03T15:17:55;16.20;41.10
24618;DHT22;12762;51.730;5.356;2023-04-03T15:20:27;16.20;41.00
24618;DHT22;12762;51.730;5.356;2023-04-03T15:22:54;16.20;41.20
24618;DHT22;12762;51.730;5.356;2023-04-03T15:25:23;16.20;41.30
24618;DHT22;12762;51.730;5.356;2023-04-03T15:27:53;16.10;41.20
24618;DHT22;12762;51.730;5.356;2023-04-03T15:30:20;16.10;41.10
24618;DHT22;12762;51.730;5.356;2023-04-03T15:32:48;16.00;41.00
24618;DHT22;12762;51.730;5.356;2023-04-03T15:35:16;15.90;41.00
24618;DHT22;12762;51.730;5.356;2023-04-03T15:37:42;15.90;41.20
24618;DHT22;12762;51.730;5.356;2023-04-03T15:40:12;15.90;41.30
24618;DHT22;12762;51.730;5.356;2023-04-03T15:42:40;15.90;41.20
24618;DHT22;12762;51.730;5.356;2023-04-03T15:45:07;15.80;41.20
24618;DHT22;12762;51.730;5.356;2023-04-03T15:47:35;15.80;41.30
24618;DHT22;12762;51.730;5.356;2023-04-03T15:50:03;15.70;41.50
24618;DHT22;12762;51.730;5.356;2023-04-03T15:52:32;15.70;41.20
24618;DHT22;12762;51.730;5.356;2023-04-03T15:54:59;15.60;41.60
24618;DHT22;12762;51.730;5.356;2023-04-03T15:57:28;15.50;41.50
24618;DHT22;12762;51.730;5.356;2023-04-03T15:59:55;15.40;41.50
24618;DHT22;12762;51.730;5.356;2023-04-03T16:02:23;15.30;41.60
24618;DHT22;12762;51.730;5.356;2023-04-03T16:04:54;15.20;41.30
24618;DHT22;12762;51.730;5.356;2023-04-03T16:07:21;15.10;41.60
24618;DHT22;12762;51.730;5.356;2023-04-03T16:09:48;15.10;41.80
24618;DHT22;12762;51.730;5.356;2023-04-03T16:12:15;15.00;41.80
24618;DHT22;12762;51.730;5.356;2023-04-03T16:14:42;14.90;41.80
24618;DHT22;12762;51.730;5.356;2023-04-03T16:17:09;14.80;41.80
24618;DHT22;12762;51.730;5.356;2023-04-03T16:19:38;14.70;41.90
24618;DHT22;12762;51.730;5.356;2023-04-03T16:22:05;14.60;42.00
24618;DHT22;12762;51.730;5.356;2023-04-03T16:24:32;14.50;42.10
24618;DHT22;12762;51.730;5.356;2023-04-03T16:26:59;14.40;42.10
24618;DHT22;12762;51.730;5.356;2023-04-03T16:29:25;14.30;42.00
24618;DHT22;12762;51.730;5.356;2023-04-03T16:31:52;14.10;42.00
24618;DHT22;12762;51.730;5.356;2023-04-03T16:34:21;14.00;42.00
24618;DHT22;12762;51.730;5.356;2023-04-03T16:36:48;13.80;42.20
24618;DHT22;12762;51.730;5.356;2023-04-03T16:39:15;13.60;42.20
24618;DHT22;12762;51.730;5.356;2023-04-03T16:41:42;13.50;42.20
24618;DHT22;12762;51.730;5.356;2023-04-03T16:44:09;13.40;42.30
24618;DHT22;12762;51.730;5.356;2023-04-03T16:46:36;13.20;42.30
24618;DHT22;12762;51.730;5.356;2023-04-03T16:49:03;13.10;42.40
24618;DHT22;12762;51.730;5.356;2023-04-03T16:51:30;13.00;42.60
24618;DHT22;12762;51.730;5.356;2023-04-03T16:53:58;12.90;42.70
24618;DHT22;12762;51.730;5.356;2023-04-03T16:56:25;12.80;42.70
24618;DHT22;12762;51.730;5.356;2023-04-03T16:58:57;12.80;42.90
24618;DHT22;12762;51.730;5.356;2023-04-03T17:01:24;12.70;43.00
24618;DHT22;12762;51.730;5.356;2023-04-03T17:03:51;12.60;43.10
24618;DHT22;12762;51.730;5.356;2023-04-03T17:06:20;12.50;43.20
24618;DHT22;12762;51.730;5.356;2023-04-03T17:08:48;12.30;43.00
24618;DHT22;12762;51.730;5.356;2023-04-03T17:11:16;12.20;43.10
24618;DHT22;12762;51.730;5.356;2023-04-03T17:13:42;12.10;43.20
24618;DHT22;12762;51.730;5.356;2023-04-03T17:16:13;12.00;43.40
24618;DHT22;12762;51.730;5.356;2023-04-03T17:18:41;11.90;43.40
24618;DHT22;12762;51.730;5.356;2023-04-03T17:21:08;11.80;43.60
24618;DHT22;12762;51.730;5.356;2023-04-03T17:23:36;11.60;43.70
24618;DHT22;12762;51.730;5.356;2023-04-03T17:26:04;11.50;43.90
24618;DHT22;12762;51.730;5.356;2023-04-03T17:28:31;11.40;44.00
24618;DHT22;12762;51.730;5.356;2023-04-03T17:31:00;11.30;44.30
24618;DHT22;12762;51.730;5.356;2023-04-03T17:33:28;11.20;44.50
24618;DHT22;12762;51.730;5.356;2023-04-03T17:35:57;11.10;44.60
24618;DHT22;12762;51.730;5.356;2023-04-03T17:38:24;11.00;44.90
24618;DHT22;12762;51.730;5.356;2023-04-03T17:40:51;10.90;44.90
24618;DHT22;12762;51.730;5.356;2023-04-03T17:43:21;10.80;45.10
24618;DHT22;12762;51.730;5.356;2023-04-03T17:45:48;10.70;45.20
24618;DHT22;12762;51.730;5.356;2023-04-03T17:48:15;10.60;45.30
24618;DHT22;12762;51.730;5.356;2023-04-03T17:50:45;10.50;45.40
24618;DHT22;12762;51.730;5.356;2023-04-03T17:53:12;10.40;45.60
24618;DHT22;12762;51.730;5.356;2023-04-03T17:55:40;10.30;45.70